Historique des mesures à Cassis (13260), France
Quotidien Résumé Juin 2, 2021 Unités:  US    Métrique   Métrique/US
Quotidien Hebdomadaire Mensuel Annuel
  Maximum: Minimum: Moyenne:
Température: 77.4 °F 62.4 °F 69.3 °F
Point de rosée: 64.6 °F 54.7 °F 60.3 °F
Humidité: 79% 65% 73%
Vitesse du vent: 9.8mph 0mph 2.6mph
Rafales: 10.5mph - -
Vent- - WSW
Pression: 30 in 29.9 in -
Précipitations: 0 in    
Historical Graphs
 
 
Mesures pour : Juin 2, 2021
Heure Temperature Point de rosée Pression Vent Vitesse du vent Rafales Humidité Pluie (par heure)
00:11 65.7 °F 59 °F 30 in WNW 1.1 mph 5.3 mph 79% 0 in
01:11 65.1 °F 58.5 °F 30 in NW 2 mph 4 mph 79% 0 in
02:11 64.9 °F 58.3 °F 30 in NW 9.8 mph 9.8 mph 79% 0 in
03:11 64.6 °F 57.6 °F 30 in NW 4.5 mph 6.3 mph 78% 0 in
04:11 64.9 °F 57.2 °F 30 in WNW 4 mph 5.6 mph 76% 0 in
05:11 64.2 °F 56.5 °F 30 in WNW 1.4 mph 3.1 mph 76% 0 in
06:11 63.3 °F 55.9 °F 29.9 in WNW 3.4 mph 4.2 mph 77% 0 in
07:11 62.8 °F 55 °F 29.9 in WNW 2.9 mph 2.9 mph 76% 0 in
08:11 62.4 °F 54.7 °F 30 in WNW 1.8 mph 3.6 mph 76% 0 in
09:11 67.8 °F 58.1 °F 30 in Calm   1.8 mph 71% 0 in
10:11 69.1 °F 58.8 °F 30 in WNW 2.9 mph 3.6 mph 70% 0 in
11:11 70.9 °F 60.6 °F 29.9 in Calm   4.5 mph 70% 0 in
12:11 73.2 °F 62.1 °F 30 in SSW 4.5 mph 7.8 mph 68% 0 in
13:11 74.5 °F 62.4 °F 30 in South 3.8 mph 10.5 mph 66% 0 in
14:11 76.3 °F 64 °F 29.9 in ESE 7.1 mph 7.4 mph 66% 0 in
15:11 77.4 °F 64.6 °F 29.9 in South 0.9 mph 5.2 mph 65% 0 in
16:11 77.2 °F 64.4 °F 29.9 in East 2.2 mph 7.6 mph 65% 0 in
17:11 75.7 °F 64.4 °F 29.9 in Calm   3.1 mph 68% 0 in
18:11 74.1 °F 63.3 °F 29.9 in South 0.9 mph 6 mph 69% 0 in
19:11 71.4 °F 61.9 °F 29.9 in ESE 1.4 mph 7.4 mph 72% 0 in
20:11 70.3 °F 62.1 °F 29.9 in SSE 1.6 mph 6.7 mph 75% 0 in
21:11 70 °F 62.1 °F 29.9 in NNW 7 mph 7 mph 76% 0 in
22:11 69.4 °F 61.9 °F 29.9 in Calm   7 mph 77% 0 in
23:11 68.7 °F 61.2 °F 29.9 in Calm   6 mph 77% 0 in
Observations météo à CASSIS
WU-History script by Weather Underground - 2 mb